Time;durP1;ratioP1;P1;durP2;ratioP2;P2;SDS_P1;SDS_P2;PMS_P1;PMS_P2;Temp;Humidity;BMP_temperature;BMP_pressure;BME280_temperature;BME280_humidity;BME280_pressure;Samples;Min_cycle;Max_cycle;Signal;HPM_P1;HPM_P2
2021/10/07 04:00:56;;;;;;;4.73;4.33;;;12.50;99.90;;;;;;6141166;22;1916170;-75
2021/10/07 04:03:22;;;;;;;5.07;3.80;;;12.50;99.90;;;;;;6267079;23;20195;-75
2021/10/07 04:05:50;;;;;;;4.87;4.00;;;12.40;99.90;;;;;;6268095;23;20469;-74
2021/10/07 04:08:17;;;;;;;4.73;4.33;;;12.40;99.90;;;;;;6265167;23;20417;-75
2021/10/07 04:10:44;;;;;;;4.67;4.27;;;12.40;99.90;;;;;;6252442;23;20428;-74
2021/10/07 04:13:11;;;;;;;4.80;4.30;;;12.30;99.90;;;;;;6232546;23;20414;-74
2021/10/07 04:15:37;;;;;;;3.90;3.60;;;12.30;99.90;;;;;;6220268;23;20411;-74
2021/10/07 04:18:06;;;;;;;8.60;4.03;;;12.40;99.90;;;;;;6218922;23;20419;-75
2021/10/07 04:20:32;;;;;;;3.80;3.50;;;12.40;99.90;;;;;;6218979;23;20752;-74
2021/10/07 04:22:59;;;;;;;4.10;3.80;;;12.40;99.90;;;;;;6233711;23;20432;-74
2021/10/07 04:25:26;;;;;;;3.37;3.17;;;12.40;99.90;;;;;;6219320;23;20415;-74
2021/10/07 04:27:56;;;;;;;4.70;3.53;;;12.50;99.90;;;;;;6218390;23;20423;-75
2021/10/07 04:30:22;;;;;;;3.97;3.60;;;12.50;99.90;;;;;;6218365;23;20400;-75
2021/10/07 04:32:49;;;;;;;5.50;3.70;;;12.50;99.90;;;;;;6218621;23;20415;-75
2021/10/07 04:35:17;;;;;;;6.30;3.33;;;12.50;99.90;;;;;;6218554;23;20529;-74
2021/10/07 04:37:44;;;;;;;4.37;3.97;;;12.50;99.90;;;;;;6218299;23;20419;-74
2021/10/07 04:40:12;;;;;;;4.03;3.73;;;12.50;99.90;;;;;;6219161;23;20419;-73
2021/10/07 04:42:39;;;;;;;4.70;4.13;;;12.40;99.90;;;;;;6219127;23;20432;-74
2021/10/07 04:45:06;;;;;;;5.00;4.43;;;12.40;99.90;;;;;;6219017;23;20416;-74
2021/10/07 04:47:33;;;;;;;5.10;4.70;;;12.40;99.90;;;;;;6218750;23;20411;-74
2021/10/07 04:49:59;;;;;;;4.33;3.93;;;12.40;99.90;;;;;;6218152;23;20416;-74
2021/10/07 04:52:28;;;;;;;4.10;3.73;;;12.40;99.90;;;;;;6218204;23;20432;-74
2021/10/07 04:54:54;;;;;;;6.30;4.73;;;12.40;99.90;;;;;;6218281;23;20412;-74
2021/10/07 04:57:21;;;;;;;4.50;4.10;;;12.40;99.90;;;;;;6218178;23;20412;-75
2021/10/07 04:59:48;;;;;;;4.90;4.27;;;12.40;99.90;;;;;;6218479;23;20412;-74
2021/10/07 05:02:14;;;;;;;4.53;4.20;;;12.50;99.90;;;;;;6217734;23;20444;-75
2021/10/07 05:04:41;;;;;;;8.47;4.07;;;12.50;99.90;;;;;;6218246;23;20962;-75
2021/10/07 05:07:08;;;;;;;4.33;3.93;;;12.50;99.90;;;;;;6218228;23;20412;-75
2021/10/07 05:09:36;;;;;;;4.20;3.90;;;12.50;99.90;;;;;;6218415;23;20411;-74
2021/10/07 05:12:03;;;;;;;6.10;3.80;;;12.50;99.90;;;;;;6217835;23;20979;-74
2021/10/07 05:14:30;;;;;;;4.27;3.97;;;12.50;99.90;;;;;;6218113;23;20420;-75
2021/10/07 05:16:56;;;;;;;5.17;4.77;;;12.50;99.90;;;;;;6217928;23;20470;-73
2021/10/07 05:19:23;;;;;;;8.33;4.10;;;12.40;99.90;;;;;;6218653;23;20424;-73
2021/10/07 05:21:50;;;;;;;5.40;4.90;;;12.40;99.90;;;;;;6217603;23;20954;-73
2021/10/07 05:24:17;;;;;;;12.23;4.60;;;12.40;99.90;;;;;;6217734;23;20435;-74
2021/10/07 05:26:45;;;;;;;4.97;4.47;;;12.40;99.90;;;;;;6218243;23;20411;-74
2021/10/07 05:29:11;;;;;;;4.37;3.97;;;12.40;99.90;;;;;;6218306;23;20412;-73
2021/10/07 05:31:38;;;;;;;5.33;3.53;;;12.50;99.90;;;;;;6217696;23;20795;-73
2021/10/07 05:34:05;;;;;;;4.50;4.20;;;12.50;99.90;;;;;;6218236;23;20408;-73
2021/10/07 05:36:32;;;;;;;4.30;3.90;;;12.50;99.90;;;;;;6227914;23;20412;-73
2021/10/07 05:38:58;;;;;;;4.43;4.03;;;12.60;99.90;;;;;;6219582;23;20396;-74
2021/10/07 05:41:25;;;;;;;6.97;4.10;;;12.60;99.90;;;;;;6217616;23;20933;-74
2021/10/07 05:43:53;;;;;;;4.43;4.03;;;12.60;99.90;;;;;;6218490;23;20431;-74
2021/10/07 05:46:20;;;;;;;5.00;4.60;;;12.70;99.90;;;;;;6217638;23;20904;-74
2021/10/07 05:48:47;;;;;;;5.00;4.60;;;12.70;99.90;;;;;;6217368;23;20904;-74
2021/10/07 05:51:14;;;;;;;5.37;4.97;;;12.60;99.90;;;;;;6219172;23;20462;-73
2021/10/07 05:53:40;;;;;;;5.50;4.43;;;12.70;99.90;;;;;;6222713;23;20728;-74
2021/10/07 05:56:07;;;;;;;5.80;4.77;;;12.70;99.90;;;;;;6218470;23;20416;-74
2021/10/07 05:58:34;;;;;;;7.80;5.20;;;12.80;99.90;;;;;;6218046;23;20423;-74
2021/10/07 06:01:02;;;;;;;5.53;4.90;;;12.80;99.90;;;;;;6217480;23;20456;-74
2021/10/07 06:03:29;;;;;;;5.57;5.07;;;12.80;99.90;;;;;;6217743;23;20978;-74
2021/10/07 06:05:56;;;;;;;4.97;4.47;;;12.80;99.90;;;;;;6217600;23;20419;-73
2021/10/07 06:08:22;;;;;;;5.73;5.23;;;12.80;99.90;;;;;;6217927;23;20411;-74
2021/10/07 06:10:49;;;;;;;6.17;5.67;;;12.80;99.90;;;;;;6218298;23;20435;-73
2021/10/07 06:13:16;;;;;;;6.67;5.63;;;12.80;99.90;;;;;;6218216;23;20408;-73
2021/10/07 06:15:42;;;;;;;5.77;5.27;;;12.80;99.90;;;;;;6217749;23;20419;-74
2021/10/07 06:18:10;;;;;;;5.57;5.00;;;12.90;99.90;;;;;;6217565;23;20418;-74
2021/10/07 06:20:38;;;;;;;5.90;5.40;;;12.90;99.90;;;;;;6217502;23;20460;-75
2021/10/07 06:23:05;;;;;;;7.17;5.30;;;12.90;99.90;;;;;;6217160;23;20518;-73
2021/10/07 06:25:32;;;;;;;5.77;5.17;;;12.90;99.90;;;;;;6217088;23;20419;-72
2021/10/07 06:27:59;;;;;;;6.67;5.90;;;12.90;99.90;;;;;;6217486;23;20412;-71
2021/10/07 06:30:26;;;;;;;6.17;5.57;;;12.90;99.90;;;;;;6217172;23;20732;-75
2021/10/07 06:32:52;;;;;;;5.97;5.20;;;13.10;99.90;;;;;;6218639;23;20407;-73
2021/10/07 06:35:20;;;;;;;9.03;5.17;;;13.20;99.90;;;;;;6217813;23;20434;-74
2021/10/07 06:37:47;;;;;;;5.60;4.77;;;13.30;99.90;;;;;;6217454;23;20412;-74
2021/10/07 06:40:14;;;;;;;8.90;5.70;;;13.40;99.90;;;;;;6217160;23;20420;-74
2021/10/07 06:42:41;;;;;;;6.47;5.97;;;13.30;99.90;;;;;;6233289;23;20417;-73
2021/10/07 06:45:08;;;;;;;7.17;6.57;;;13.40;99.90;;;;;;6230925;23;20443;-73
2021/10/07 06:47:35;;;;;;;7.13;6.43;;;13.30;99.90;;;;;;6219743;23;20412;-74
2021/10/07 06:50:04;;;;;;;7.87;6.30;;;13.30;99.90;;;;;;6219594;23;20412;-74
2021/10/07 06:52:32;;;;;;;7.10;6.40;;;13.30;99.90;;;;;;6218817;23;20810;-74
2021/10/07 06:54:58;;;;;;;7.63;6.90;;;13.20;99.90;;;;;;6218992;23;20407;-73
2021/10/07 06:57:25;;;;;;;11.03;6.90;;;13.10;99.90;;;;;;6219192;23;20423;-74
2021/10/07 06:59:52;;;;;;;11.43;7.20;;;13.00;99.90;;;;;;6219021;23;20418;-74
2021/10/07 07:02:19;;;;;;;6.80;6.20;;;12.90;99.90;;;;;;6218766;23;20439;-74
2021/10/07 07:04:46;;;;;;;9.63;6.90;;;13.00;99.90;;;;;;6219094;23;20525;-74
2021/10/07 07:07:12;;;;;;;9.43;7.70;;;13.00;99.90;;;;;;6218965;23;20927;-74
2021/10/07 07:09:40;;;;;;;8.97;8.07;;;13.00;99.90;;;;;;6219015;23;20411;-74
2021/10/07 07:12:07;;;;;;;12.20;7.90;;;13.00;99.90;;;;;;6218925;23;20764;-74
2021/10/07 07:14:34;;;;;;;11.00;8.30;;;13.00;99.90;;;;;;6219246;23;20407;-74
2021/10/07 07:17:01;;;;;;;10.53;7.93;;;12.90;99.90;;;;;;6219194;23;20416;-74
2021/10/07 07:19:27;;;;;;;8.70;7.83;;;13.00;99.90;;;;;;6218557;23;20893;-73
2021/10/07 07:21:54;;;;;;;10.27;8.30;;;13.00;99.90;;;;;;6221435;23;20432;-74
2021/10/07 07:24:21;;;;;;;9.37;8.40;;;13.10;99.90;;;;;;6229303;23;20457;-74
2021/10/07 07:26:49;;;;;;;9.50;8.53;;;13.00;99.90;;;;;;6230514;23;20418;-75
2021/10/07 07:29:16;;;;;;;9.63;8.63;;;13.10;99.90;;;;;;6219488;23;20412;-75
2021/10/07 07:31:42;;;;;;;9.03;8.03;;;13.10;99.90;;;;;;6218813;23;20431;-75
2021/10/07 07:34:09;;;;;;;10.70;9.00;;;13.20;99.90;;;;;;6218526;23;20414;-74
2021/10/07 07:36:36;;;;;;;10.23;9.30;;;13.20;99.90;;;;;;6218644;23;20412;-74
2021/10/07 07:39:03;;;;;;;9.70;8.83;;;13.20;99.90;;;;;;6219355;23;20737;-73
2021/10/07 07:41:30;;;;;;;11.83;8.60;;;13.20;99.90;;;;;;6219054;23;20432;-75
2021/10/07 07:43:58;;;;;;;10.40;9.37;;;13.30;99.90;;;;;;6219155;23;20438;-75
2021/10/07 07:46:25;;;;;;;10.20;8.87;;;13.30;99.90;;;;;;6218975;23;20415;-75
2021/10/07 07:48:52;;;;;;;10.20;9.20;;;13.40;99.90;;;;;;6218577;23;20419;-74
2021/10/07 07:51:19;;;;;;;9.60;8.70;;;13.40;99.90;;;;;;6218936;23;20432;-73
2021/10/07 07:53:46;;;;;;;9.73;8.90;;;13.40;99.90;;;;;;6218694;23;20431;-74
2021/10/07 07:56:14;;;;;;;12.43;10.20;;;13.50;99.90;;;;;;6218638;23;20466;-73
2021/10/07 07:58:41;;;;;;;10.37;9.03;;;13.60;99.90;;;;;;6218808;23;20412;-74
2021/10/07 08:01:09;;;;;;;11.83;10.43;;;13.60;99.90;;;;;;6218171;23;20450;-74
2021/10/07 08:03:36;;;;;;;18.33;10.70;;;13.50;99.90;;;;;;6222101;23;20436;-74
2021/10/07 08:06:03;;;;;;;10.70;9.20;;;13.60;99.90;;;;;;6226596;23;20408;-74
2021/10/07 08:08:30;;;;;;;12.40;9.20;;;13.60;99.90;;;;;;6226392;23;20416;-74
2021/10/07 08:10:57;;;;;;;16.33;10.10;;;13.70;99.90;;;;;;6229700;23;20435;-74
2021/10/07 08:13:24;;;;;;;14.23;10.37;;;13.80;99.90;;;;;;6226648;23;20415;-74
2021/10/07 08:15:51;;;;;;;12.67;9.97;;;13.80;99.90;;;;;;6221554;23;20466;-75
2021/10/07 08:18:20;;;;;;;9.60;8.70;;;14.10;99.90;;;;;;6220233;23;20805;-73
2021/10/07 08:20:47;;;;;;;9.70;8.90;;;14.20;99.90;;;;;;6218147;23;20427;-75
2021/10/07 08:23:14;;;;;;;9.80;9.10;;;14.30;99.90;;;;;;6217606;23;20962;-73
2021/10/07 08:25:42;;;;;;;11.17;9.87;;;14.50;99.90;;;;;;6218392;23;20526;-74
2021/10/07 08:28:09;;;;;;;16.53;10.50;;;14.60;99.90;;;;;;6218546;23;20490;-74
2021/10/07 08:30:36;;;;;;;10.50;9.53;;;14.50;99.90;;;;;;6218339;23;20431;-75
2021/10/07 08:33:03;;;;;;;9.33;8.53;;;14.90;99.90;;;;;;6218074;23;20744;-74
2021/10/07 08:35:32;;;;;;;11.00;8.70;;;15.30;99.90;;;;;;6217893;23;20404;-74
2021/10/07 08:37:58;;;;;;;9.03;8.33;;;15.70;99.90;;;;;;6218308;23;20407;-74
2021/10/07 08:40:25;;;;;;;8.97;8.27;;;16.00;99.90;;;;;;6218139;23;20416;-73
2021/10/07 08:42:52;;;;;;;9.30;8.27;;;16.40;99.90;;;;;;6217764;23;20419;-74
2021/10/07 08:45:19;;;;;;;9.20;8.03;;;16.80;99.90;;;;;;6218003;23;20438;-73
2021/10/07 08:47:49;;;;;;;8.63;7.90;;;17.00;99.90;;;;;;6217931;23;20418;-74
2021/10/07 08:50:18;;;;;;;8.87;7.97;;;17.30;99.90;;;;;;6218419;23;20416;-74
2021/10/07 08:52:47;;;;;;;9.57;8.30;;;17.40;99.90;;;;;;6219644;23;20469;-75
2021/10/07 08:55:13;;;;;;;8.20;7.53;;;17.40;99.90;;;;;;6237648;23;20404;-73
2021/10/07 08:57:41;;;;;;;9.27;8.17;;;17.40;99.90;;;;;;6221174;23;20415;-73
2021/10/07 09:00:11;;;;;;;9.47;8.57;;;17.10;99.90;;;;;;6217967;23;20430;-73
2021/10/07 09:02:38;;;;;;;9.73;8.93;;;17.10;99.90;;;;;;6217565;23;20395;-74
2021/10/07 09:05:12;;;;;;;10.10;9.10;;;17.00;99.90;;;;;;6218547;23;20475;-74
2021/10/07 09:07:56;;;;;;;8.93;7.60;;;16.80;99.90;;;;;;6217702;23;20447;-74
2021/10/07 09:10:35;;;;;;;8.03;7.33;;;16.50;99.90;;;;;;6218032;23;20392;-73
2021/10/07 09:13:07;;;;;;;9.50;8.10;;;16.50;99.90;;;;;;6218084;23;20395;-74
2021/10/07 09:15:33;;;;;;;8.93;7.63;;;16.30;99.90;;;;;;6230109;23;20410;-74
2021/10/07 09:18:06;;;;;;;8.93;8.13;;;16.20;99.90;;;;;;6225126;23;20408;-74
2021/10/07 09:20:34;;;;;;;9.63;8.73;;;16.00;99.90;;;;;;6218195;23;20427;-74
2021/10/07 09:23:08;;;;;;;10.50;9.40;;;15.50;99.90;;;;;;6217887;23;20408;-74
2021/10/07 09:25:57;;;;;;;10.43;9.00;;;15.30;99.90;;;;;;6217703;23;20427;-74
2021/10/07 09:28:25;;;;;;;9.00;8.20;;;15.30;99.90;;;;;;6218006;23;20392;-73
2021/10/07 09:30:57;;;;;;;9.53;8.60;;;15.20;99.90;;;;;;6217715;23;20427;-74
2021/10/07 09:33:36;;;;;;;9.33;8.30;;;15.30;99.90;;;;;;6217500;23;20408;-73
2021/10/07 09:36:13;;;;;;;9.40;8.20;;;15.20;99.90;;;;;;6217432;23;20780;-73
2021/10/07 09:38:42;;;;;;;10.27;9.23;;;15.00;99.90;;;;;;6217571;23;20431;-74
2021/10/07 09:41:11;;;;;;;9.97;9.07;;;15.00;99.90;;;;;;6217289;23;20428;-74
2021/10/07 09:43:43;;;;;;;9.67;8.77;;;14.90;99.90;;;;;;6217341;23;20407;-74
2021/10/07 09:46:09;;;;;;;10.40;9.60;;;14.90;99.90;;;;;;6217681;23;20435;-74
2021/10/07 09:48:40;;;;;;;10.90;9.87;;;14.90;99.90;;;;;;6218608;23;20411;-73
2021/10/07 09:51:14;;;;;;;11.53;8.10;;;14.80;99.90;;;;;;6216935;23;20974;-73
2021/10/07 09:53:46;;;;;;;11.30;7.37;;;14.90;99.90;;;;;;6217120;23;20401;-74
2021/10/07 09:56:26;;;;;;;8.43;7.63;;;14.90;99.90;;;;;;6217784;23;20392;-73
2021/10/07 09:58:54;;;;;;;8.60;7.87;;;15.00;99.90;;;;;;6217269;23;20400;-74
2021/10/07 10:01:22;;;;;;;8.17;7.37;;;15.10;99.90;;;;;;6216644;23;20447;-74
2021/10/07 10:03:48;;;;;;;8.17;7.50;;;15.00;99.90;;;;;;6217076;23;20416;-73
2021/10/07 10:06:15;;;;;;;7.80;7.10;;;15.00;99.90;;;;;;6216764;23;20497;-74
2021/10/07 10:08:44;;;;;;;7.10;6.40;;;15.10;99.90;;;;;;6216603;23;20408;-74
2021/10/07 10:11:11;;;;;;;4.97;4.57;;;15.20;99.90;;;;;;6216639;23;20435;-74
2021/10/07 10:13:38;;;;;;;5.23;4.93;;;15.30;99.90;;;;;;6216855;23;20412;-74
2021/10/07 10:16:06;;;;;;;8.70;6.97;;;15.40;99.90;;;;;;6217051;23;20411;-74
2021/10/07 10:18:33;;;;;;;6.63;6.10;;;15.60;99.90;;;;;;6216922;23;20412;-74
2021/10/07 10:21:04;;;;;;;5.20;4.70;;;15.90;99.90;;;;;;6216781;23;20450;-74
2021/10/07 10:23:33;;;;;;;4.60;4.30;;;16.10;99.90;;;;;;6217128;23;20418;-73
2021/10/07 10:26:04;;;;;;;4.37;3.90;;;16.40;99.90;;;;;;6225309;23;20436;-74
2021/10/07 10:28:47;;;;;;;6.47;5.00;;;16.50;99.90;;;;;;6217904;23;20420;-74
2021/10/07 10:31:16;;;;;;;5.03;4.63;;;16.30;99.90;;;;;;6216757;23;20489;-73
2021/10/07 10:33:45;;;;;;;6.37;4.53;;;16.50;99.90;;;;;;6216785;23;20411;-73
2021/10/07 10:36:35;;;;;;;4.73;4.50;;;16.40;99.90;;;;;;6216842;23;20408;-73
2021/10/07 10:39:14;;;;;;;5.20;4.67;;;16.30;99.90;;;;;;6217608;23;20429;-73
2021/10/07 10:41:53;;;;;;;5.90;5.40;;;16.30;99.90;;;;;;6217399;23;20437;-74
2021/10/07 10:44:37;;;;;;;6.10;5.20;;;16.40;99.90;;;;;;6216307;23;20396;-74
2021/10/07 10:47:23;;;;;;;5.23;4.67;;;16.30;99.90;;;;;;6216622;23;20495;-74
2021/10/07 10:50:12;;;;;;;6.87;6.17;;;16.40;99.90;;;;;;6217173;23;20696;-74
2021/10/07 10:52:44;;;;;;;5.97;5.60;;;16.50;99.90;;;;;;6216966;23;20398;-73
2021/10/07 10:55:13;;;;;;;8.43;5.97;;;16.60;99.90;;;;;;6217296;23;20394;-73
2021/10/07 10:57:44;;;;;;;6.63;6.13;;;16.70;99.90;;;;;;6216917;23;20407;-74
2021/10/07 11:00:25;;;;;;;7.67;6.87;;;16.80;99.90;;;;;;6217879;23;20845;-74
2021/10/07 11:02:53;;;;;;;6.50;5.90;;;16.60;99.90;;;;;;6216987;23;20856;-73
2021/10/07 11:05:25;;;;;;;6.67;6.07;;;16.60;99.90;;;;;;6216861;23;20446;-74
2021/10/07 11:08:15;;;;;;;7.40;6.80;;;16.80;99.90;;;;;;6234205;23;20388;-73
2021/10/07 11:10:43;;;;;;;7.63;7.03;;;16.90;99.90;;;;;;6236505;23;20929;-73
2021/10/07 11:13:15;;;;;;;8.27;7.50;;;17.00;99.90;;;;;;6224142;23;20412;-73
2021/10/07 11:15:42;;;;;;;8.17;7.47;;;17.10;99.90;;;;;;6216659;23;20392;-73
2021/10/07 11:18:09;;;;;;;7.63;6.93;;;17.20;99.90;;;;;;6217157;23;20415;-74
2021/10/07 11:20:36;;;;;;;7.70;6.87;;;17.10;99.90;;;;;;6217080;23;20439;-74
2021/10/07 11:23:09;;;;;;;6.73;6.13;;;17.20;99.90;;;;;;6217600;23;20792;-74
2021/10/07 11:25:38;;;;;;;7.10;6.40;;;17.20;99.90;;;;;;6217919;23;20439;-73
2021/10/07 11:28:05;;;;;;;6.90;6.30;;;17.20;99.90;;;;;;6218434;23;20411;-73
2021/10/07 11:30:36;;;;;;;6.33;5.77;;;17.30;99.90;;;;;;6217969;23;20418;-73
2021/10/07 11:33:04;;;;;;;6.70;6.10;;;17.40;99.90;;;;;;6219834;23;20431;-74
2021/10/07 11:35:32;;;;;;;6.70;6.00;;;17.60;99.90;;;;;;6219526;23;20414;-73
2021/10/07 11:38:06;;;;;;;6.00;5.50;;;17.80;99.90;;;;;;6219264;23;20415;-73
2021/10/07 11:40:38;;;;;;;7.80;5.63;;;17.90;99.90;;;;;;6219607;23;20431;-73
2021/10/07 11:43:07;;;;;;;5.73;5.23;;;17.90;99.90;;;;;;6220122;23;20396;-73
2021/10/07 11:45:38;;;;;;;5.63;5.13;;;17.90;99.90;;;;;;6218967;23;20439;-73
2021/10/07 11:48:09;;;;;;;6.57;6.00;;;18.00;99.90;;;;;;6219191;23;20396;-73
2021/10/07 11:50:42;;;;;;;6.30;5.77;;;18.10;99.90;;;;;;6229347;23;20756;-73
2021/10/07 11:53:11;;;;;;;9.40;5.70;;;18.10;99.90;;;;;;6219627;23;20731;-74
2021/10/07 11:55:44;;;;;;;6.27;5.77;;;18.10;99.90;;;;;;6221509;23;20418;-74
2021/10/07 11:58:11;;;;;;;7.17;6.40;;;18.10;99.90;;;;;;6224680;23;20416;-74
2021/10/07 12:00:45;;;;;;;6.60;6.00;;;18.00;99.90;;;;;;6219583;23;20785;-74
2021/10/07 12:03:15;;;;;;;6.63;6.13;;;17.60;99.90;;;;;;6220200;23;20400;-74
2021/10/07 12:05:42;;;;;;;6.43;5.93;;;17.40;99.90;;;;;;6219405;23;20440;-74
2021/10/07 12:08:13;;;;;;;5.43;5.13;;;17.20;99.90;;;;;;6217562;23;20735;-72
2021/10/07 12:10:42;;;;;;;7.07;6.47;;;16.80;99.90;;;;;;6220591;23;20432;-73
2021/10/07 12:13:12;;;;;;;5.93;5.53;;;16.80;99.90;;;;;;6220619;23;20411;-73
2021/10/07 12:15:42;;;;;;;10.20;6.53;;;16.70;99.90;;;;;;6219678;23;20407;-74
2021/10/07 12:18:13;;;;;;;6.47;5.90;;;16.80;99.90;;;;;;6218994;23;20396;-73
2021/10/07 12:20:40;;;;;;;6.67;6.13;;;16.80;99.90;;;;;;6219205;23;20454;-73
2021/10/07 12:23:08;;;;;;;5.80;5.30;;;16.70;99.90;;;;;;6219035;23;20408;-73
2021/10/07 12:25:42;;;;;;;5.90;5.37;;;16.70;99.90;;;;;;6217922;23;20467;-73
2021/10/07 12:28:15;;;;;;;6.40;5.90;;;16.70;99.90;;;;;;6218113;23;20476;-73
2021/10/07 12:30:50;;;;;;;6.27;5.77;;;16.70;99.90;;;;;;6218110;23;20436;-73
2021/10/07 12:33:18;;;;;;;6.50;6.10;;;16.60;99.90;;;;;;6217717;23;20400;-74
2021/10/07 12:36:00;;;;;;;6.27;5.63;;;16.60;99.90;;;;;;6218420;23;20392;-73
2021/10/07 12:38:27;;;;;;;5.93;5.43;;;16.50;99.90;;;;;;6218406;23;20404;-74
2021/10/07 12:40:56;;;;;;;8.30;6.40;;;16.50;99.90;;;;;;6217891;23;20432;-73
2021/10/07 12:43:23;;;;;;;6.60;6.03;;;16.40;99.90;;;;;;6218411;23;20419;-74
2021/10/07 12:46:08;;;;;;;6.10;5.60;;;16.40;99.90;;;;;;6217604;23;20442;-74
2021/10/07 12:48:51;;;;;;;7.07;5.13;;;16.40;99.90;;;;;;6217444;23;20396;-74
2021/10/07 12:51:18;;;;;;;6.23;4.50;;;16.50;99.90;;;;;;6217942;23;20438;-74
2021/10/07 12:53:47;;;;;;;5.67;5.13;;;16.60;99.90;;;;;;6217533;23;20773;-73
2021/10/07 12:56:16;;;;;;;6.03;5.63;;;16.70;99.90;;;;;;6217724;23;20408;-75
2021/10/07 12:58:50;;;;;;;10.57;6.00;;;16.80;99.90;;;;;;6217898;23;20419;-73
2021/10/07 13:01:19;;;;;;;5.57;5.17;;;16.70;99.90;;;;;;6217321;23;20448;-73
2021/10/07 13:03:45;;;;;;;4.83;4.43;;;16.60;99.90;;;;;;6218022;23;20412;-74
2021/10/07 13:06:30;;;;;;;7.63;4.60;;;16.60;99.90;;;;;;6217598;23;20431;-74
2021/10/07 13:08:58;;;;;;;4.30;4.00;;;16.60;99.90;;;;;;6218453;23;20441;-74
2021/10/07 13:11:25;;;;;;;4.30;4.10;;;16.70;99.90;;;;;;6217778;23;20428;-73
2021/10/07 13:13:53;;;;;;;3.83;3.53;;;16.80;99.90;;;;;;6218111;23;20418;-73
2021/10/07 13:16:20;;;;;;;4.30;4.00;;;17.00;99.90;;;;;;6218134;23;20408;-73
2021/10/07 13:18:46;;;;;;;4.20;3.90;;;17.00;99.90;;;;;;6218586;23;20418;-73
2021/10/07 13:21:13;;;;;;;4.30;4.00;;;17.00;99.90;;;;;;6217877;23;20950;-73
2021/10/07 13:23:42;;;;;;;3.73;3.53;;;17.10;99.90;;;;;;6227819;23;20412;-73
2021/10/07 13:26:09;;;;;;;3.37;3.17;;;17.20;99.90;;;;;;6219821;23;20431;-73
2021/10/07 13:28:37;;;;;;;3.70;3.50;;;17.20;99.90;;;;;;6224112;23;20800;-74
2021/10/07 13:31:04;;;;;;;3.77;3.40;;;17.40;99.90;;;;;;6218623;23;20427;-73
2021/10/07 13:33:31;;;;;;;4.47;3.23;;;17.40;99.90;;;;;;6219029;23;20416;-74
2021/10/07 13:35:58;;;;;;;3.73;3.43;;;17.50;99.90;;;;;;6218105;23;20412;-73
2021/10/07 13:38:25;;;;;;;4.00;3.70;;;17.40;99.90;;;;;;6218408;23;20411;-73
2021/10/07 13:40:56;;;;;;;3.60;3.40;;;17.30;99.90;;;;;;6217983;23;20438;-73
2021/10/07 13:43:23;;;;;;;3.77;3.53;;;17.60;99.90;;;;;;6218304;23;20396;-73
2021/10/07 13:45:50;;;;;;;5.40;3.50;;;17.80;99.90;;;;;;6218784;23;20503;-73
2021/10/07 13:48:18;;;;;;;3.57;3.30;;;18.10;99.90;;;;;;6219642;23;20416;-74
2021/10/07 13:50:45;;;;;;;3.67;3.43;;;18.20;99.90;;;;;;6219553;23;20439;-73
2021/10/07 13:53:12;;;;;;;4.17;3.77;;;18.30;99.90;;;;;;6219170;23;20412;-74
2021/10/07 13:55:40;;;;;;;3.53;3.23;;;18.10;99.90;;;;;;6219081;23;20415;-73
2021/10/07 13:58:09;;;;;;;3.00;2.80;;;18.10;99.90;;;;;;6219326;23;20412;-73
2021/10/07 14:00:36;;;;;;;3.27;3.07;;;18.20;99.90;;;;;;6218667;23;20462;-74
2021/10/07 14:03:05;;;;;;;2.83;2.63;;;18.10;99.90;;;;;;6218916;23;20401;-74
2021/10/07 14:05:35;;;;;;;2.73;2.63;;;17.80;99.90;;;;;;6218842;23;20435;-73
2021/10/07 14:08:03;;;;;;;3.00;2.80;;;17.80;99.90;;;;;;6218447;23;20775;-73
2021/10/07 14:10:29;;;;;;;5.83;2.47;;;17.80;99.90;;;;;;6218721;23;20411;-74
2021/10/07 14:12:56;;;;;;;2.43;2.30;;;17.80;99.90;;;;;;6218003;23;20396;-72
2021/10/07 14:15:26;;;;;;;3.13;3.03;;;17.60;99.90;;;;;;6218692;23;20412;-72
2021/10/07 14:17:54;;;;;;;3.50;2.53;;;17.40;99.90;;;;;;6219502;23;20404;-72
2021/10/07 14:20:21;;;;;;;3.50;3.30;;;17.30;99.90;;;;;;6218306;23;20416;-72
2021/10/07 14:22:48;;;;;;;3.67;3.37;;;17.30;99.90;;;;;;6218603;23;20411;-74
2021/10/07 14:25:15;;;;;;;3.77;3.33;;;17.30;99.90;;;;;;6218743;23;20407;-74
2021/10/07 14:27:41;;;;;;;3.20;3.00;;;17.30;99.90;;;;;;6218346;23;20414;-73
2021/10/07 14:30:10;;;;;;;3.33;3.10;;;17.20;99.90;;;;;;6218131;23;20758;-74
2021/10/07 14:32:38;;;;;;;2.97;2.77;;;17.00;99.90;;;;;;6219407;23;20431;-73
2021/10/07 14:35:06;;;;;;;4.90;3.37;;;17.00;99.90;;;;;;6222640;23;20771;-74
2021/10/07 14:37:32;;;;;;;5.43;2.70;;;16.70;99.90;;;;;;6222501;23;20404;-74
2021/10/07 14:39:59;;;;;;;3.10;2.90;;;16.70;99.90;;;;;;6221852;23;20418;-74
2021/10/07 14:42:26;;;;;;;2.70;2.50;;;16.70;99.90;;;;;;6220092;23;20442;-73
2021/10/07 14:44:53;;;;;;;2.60;2.50;;;16.70;99.90;;;;;;6219850;23;20419;-74
2021/10/07 14:47:20;;;;;;;3.03;2.73;;;16.70;99.90;;;;;;6218098;23;20970;-75
2021/10/07 14:49:48;;;;;;;3.10;3.00;;;16.90;99.90;;;;;;6218548;23;20412;-74
2021/10/07 14:52:15;;;;;;;3.43;3.23;;;16.80;99.90;;;;;;6219041;23;20436;-74
2021/10/07 14:54:41;;;;;;;3.10;3.00;;;16.80;99.90;;;;;;6218494;23;20474;-74
2021/10/07 14:57:08;;;;;;;3.23;2.83;;;16.80;99.90;;;;;;6218999;23;20414;-74
2021/10/07 14:59:35;;;;;;;2.77;2.67;;;16.70;99.90;;;;;;6226983;23;20415;-75
2021/10/07 15:02:02;;;;;;;2.80;2.60;;;16.90;99.90;;;;;;6217143;23;20959;-74
2021/10/07 15:04:29;;;;;;;2.60;2.40;;;17.00;99.90;;;;;;6217440;23;20412;-74
2021/10/07 15:06:57;;;;;;;3.27;3.00;;;17.20;99.90;;;;;;6219434;23;20432;-74
2021/10/07 15:09:24;;;;;;;2.60;2.40;;;17.30;99.90;;;;;;6219465;23;20399;-74
2021/10/07 15:11:51;;;;;;;3.10;2.97;;;17.30;99.90;;;;;;6218813;23;20438;-74
2021/10/07 15:14:17;;;;;;;3.40;2.93;;;17.50;99.90;;;;;;6218999;23;20435;-74
2021/10/07 15:16:44;;;;;;;2.80;2.70;;;17.40;99.90;;;;;;6219811;23;20427;-74
2021/10/07 15:19:11;;;;;;;3.37;3.10;;;17.40;99.90;;;;;;6220394;23;20412;-74
2021/10/07 15:21:40;;;;;;;2.90;2.70;;;17.30;99.90;;;;;;6224731;23;20432;-74
2021/10/07 15:24:08;;;;;;;2.90;2.70;;;17.30;99.90;;;;;;6223693;23;20450;-74
2021/10/07 15:26:35;;;;;;;8.83;3.70;;;17.20;99.90;;;;;;6220306;23;20443;-74
2021/10/07 15:29:02;;;;;;;3.13;2.93;;;17.10;99.90;;;;;;6235790;23;20415;-75
2021/10/07 15:31:28;;;;;;;3.50;3.20;;;17.10;99.90;;;;;;6220194;23;20434;-73
2021/10/07 15:33:55;;;;;;;3.20;3.00;;;17.00;99.90;;;;;;6220080;23;20419;-75
2021/10/07 15:36:23;;;;;;;3.33;2.87;;;17.00;99.90;;;;;;6220663;23;20412;-73
2021/10/07 15:38:49;;;;;;;3.13;3.00;;;16.80;99.90;;;;;;6222309;23;20411;-74
2021/10/07 15:41:17;;;;;;;3.67;3.37;;;16.80;99.90;;;;;;6221472;23;20758;-73
2021/10/07 15:43:44;;;;;;;3.13;3.03;;;16.80;99.90;;;;;;6220461;23;20411;-73
2021/10/07 15:46:15;;;;;;;3.10;2.90;;;16.70;99.90;;;;;;6230990;23;20440;-72
2021/10/07 15:48:42;;;;;;;7.37;3.20;;;16.80;99.90;;;;;;6223249;23;20396;-73
2021/10/07 15:51:11;;;;;;;3.97;3.67;;;16.80;99.90;;;;;;6219046;23;20432;-73
2021/10/07 15:53:39;;;;;;;2.90;2.70;;;16.80;99.90;;;;;;6219040;23;20412;-73
2021/10/07 15:56:06;;;;;;;4.00;2.70;;;16.70;99.90;;;;;;6218851;23;20483;-72
2021/10/07 15:58:35;;;;;;;3.10;2.90;;;16.70;99.90;;;;;;6219874;23;20430;-70
2021/10/07 16:01:02;;;;;;;3.47;2.83;;;16.70;99.90;;;;;;6219244;23;20444;-69
2021/10/07 16:03:28;;;;;;;3.03;2.50;;;16.70;99.90;;;;;;6219156;23;20416;-72
2021/10/07 16:05:57;;;;;;;2.60;2.40;;;16.60;99.90;;;;;;6218967;23;20923;-72
2021/10/07 16:08:25;;;;;;;2.33;2.00;;;16.60;99.90;;;;;;6219869;23;20724;-72
2021/10/07 16:10:54;;;;;;;2.23;2.13;;;16.60;99.90;;;;;;6219289;23;20489;-72
2021/10/07 16:13:21;;;;;;;2.37;1.90;;;16.30;99.90;;;;;;6219327;23;20420;-72
2021/10/07 16:15:51;;;;;;;2.90;2.27;;;16.20;99.90;;;;;;6218816;23;20408;-72
2021/10/07 16:18:18;;;;;;;2.30;2.10;;;16.10;99.90;;;;;;6218456;23;20783;-73
2021/10/07 16:20:44;;;;;;;2.20;2.10;;;16.00;99.90;;;;;;6219281;23;20431;-74
2021/10/07 16:23:12;;;;;;;2.07;1.97;;;16.00;99.90;;;;;;6219528;23;20416;-72
2021/10/07 16:25:39;;;;;;;2.00;1.90;;;15.90;99.90;;;;;;6219076;23;20399;-70
2021/10/07 16:28:06;;;;;;;2.17;2.07;;;15.80;99.90;;;;;;6219843;23;20436;-70
2021/10/07 16:30:33;;;;;;;2.50;2.33;;;15.70;99.90;;;;;;6223276;23;20897;-72
2021/10/07 16:33:01;;;;;;;2.47;2.37;;;15.60;99.90;;;;;;6221774;23;20415;-72
2021/10/07 16:35:28;;;;;;;2.70;2.33;;;15.50;99.90;;;;;;6219602;23;20416;-73
2021/10/07 16:37:55;;;;;;;2.33;2.23;;;15.60;99.90;;;;;;6219141;23;20392;-69
2021/10/07 16:40:22;;;;;;;2.77;2.00;;;15.60;99.90;;;;;;6219523;23;20458;-70
2021/10/07 16:42:49;;;;;;;4.50;2.27;;;15.60;99.90;;;;;;6218987;23;20419;-71
2021/10/07 16:45:15;;;;;;;4.70;2.13;;;15.60;99.90;;;;;;6218966;23;20418;-70
2021/10/07 16:47:42;;;;;;;2.47;2.37;;;15.60;99.90;;;;;;6218715;23;20436;-72
2021/10/07 16:50:11;;;;;;;2.00;1.90;;;15.50;99.90;;;;;;6219144;23;20419;-71
2021/10/07 16:52:38;;;;;;;4.47;3.20;;;15.50;99.90;;;;;;6219563;23;20438;-71